sensor_id;sensor_type;location;lat;lon;timestamp;pressure;altitude;pressure_sealevel;temperature
40199;BMP280;25906;43.536;26.068;2024-03-08T00:02:36;99080.03;;;4.15
40199;BMP280;25906;43.536;26.068;2024-03-08T00:05:22;99078.47;;;4.10
40199;BMP280;25906;43.536;26.068;2024-03-08T00:08:07;99077.78;;;4.20
40199;BMP280;25906;43.536;26.068;2024-03-08T00:10:55;99072.88;;;4.12
40199;BMP280;25906;43.536;26.068;2024-03-08T00:13:40;99068.72;;;4.07
40199;BMP280;25906;43.536;26.068;2024-03-08T00:16:27;99061.19;;;4.02
40199;BMP280;25906;43.536;26.068;2024-03-08T00:19:12;99068.72;;;4.07
40199;BMP280;25906;43.536;26.068;2024-03-08T00:21:58;99068.66;;;4.00
40199;BMP280;25906;43.536;26.068;2024-03-08T00:24:43;99060.50;;;4.05
40199;BMP280;25906;43.536;26.068;2024-03-08T00:27:29;99066.78;;;4.00
40199;BMP280;25906;43.536;26.068;2024-03-08T00:30:18;99061.41;;;3.79
40199;BMP280;25906;43.536;26.068;2024-03-08T00:33:04;99053.94;;;3.81
40199;BMP280;25906;43.536;26.068;2024-03-08T00:35:49;99057.63;;;3.77
40199;BMP280;25906;43.536;26.068;2024-03-08T00:38:35;99058.38;;;3.77
40199;BMP280;25906;43.536;26.068;2024-03-08T00:41:20;99056.53;;;3.78
40199;BMP280;25906;43.536;26.068;2024-03-08T00:44:06;99060.94;;;3.67
40199;BMP280;25906;43.536;26.068;2024-03-08T00:46:51;99057.25;;;3.75
40199;BMP280;25906;43.536;26.068;2024-03-08T00:49:37;99058.69;;;3.65
40199;BMP280;25906;43.536;26.068;2024-03-08T00:52:23;99055.75;;;3.70
40199;BMP280;25906;43.536;26.068;2024-03-08T00:55:11;99063.16;;;3.65
40199;BMP280;25906;43.536;26.068;2024-03-08T00:57:57;99050.78;;;3.62
40199;BMP280;25906;43.536;26.068;2024-03-08T01:00:42;99060.50;;;3.61
40199;BMP280;25906;43.536;26.068;2024-03-08T01:03:28;99053.31;;;3.51
40199;BMP280;25906;43.536;26.068;2024-03-08T01:06:16;99052.94;;;3.52
40199;BMP280;25906;43.536;26.068;2024-03-08T01:09:02;99055.16;;;3.47
40199;BMP280;25906;43.536;26.068;2024-03-08T01:11:48;99059.69;;;3.53
40199;BMP280;25906;43.536;26.068;2024-03-08T01:14:33;99059.25;;;3.48
40199;BMP280;25906;43.536;26.068;2024-03-08T01:17:19;99057.34;;;3.41
40199;BMP280;25906;43.536;26.068;2024-03-08T01:20:04;99053.22;;;3.40
40199;BMP280;25906;43.536;26.068;2024-03-08T01:22:50;99056.59;;;3.41
40199;BMP280;25906;43.536;26.068;2024-03-08T01:25:36;99055.50;;;3.42
40199;BMP280;25906;43.536;26.068;2024-03-08T01:28:21;99059.13;;;3.34
40199;BMP280;25906;43.536;26.068;2024-03-08T01:31:06;99050.19;;;3.35
40199;BMP280;25906;43.536;26.068;2024-03-08T01:33:52;99054.31;;;3.39
40199;BMP280;25906;43.536;26.068;2024-03-08T01:36:38;99052.88;;;3.42
40199;BMP280;25906;43.536;26.068;2024-03-08T01:39:23;99040.81;;;3.34
40199;BMP280;25906;43.536;26.068;2024-03-08T01:42:09;99054.75;;;3.45
40199;BMP280;25906;43.536;26.068;2024-03-08T01:44:56;99052.78;;;3.35
40199;BMP280;25906;43.536;26.068;2024-03-08T01:47:42;99050.88;;;3.32
40199;BMP280;25906;43.536;26.068;2024-03-08T01:50:27;99059.16;;;3.37
40199;BMP280;25906;43.536;26.068;2024-03-08T01:53:13;99052.03;;;3.34
40199;BMP280;25906;43.536;26.068;2024-03-08T01:56:01;99060.66;;;3.35
40199;BMP280;25906;43.536;26.068;2024-03-08T01:58:48;99066.97;;;3.34
40199;BMP280;25906;43.536;26.068;2024-03-08T02:01:33;99070.72;;;3.36
40199;BMP280;25906;43.536;26.068;2024-03-08T02:04:19;99068.50;;;3.35
40199;BMP280;25906;43.536;26.068;2024-03-08T02:07:06;99071.47;;;3.37
40199;BMP280;25906;43.536;26.068;2024-03-08T02:09:51;99063.63;;;3.37
40199;BMP280;25906;43.536;26.068;2024-03-08T02:12:37;99068.09;;;3.33
40199;BMP280;25906;43.536;26.068;2024-03-08T02:15:23;99072.22;;;3.34
40199;BMP280;25906;43.536;26.068;2024-03-08T02:18:09;99075.56;;;3.34
40199;BMP280;25906;43.536;26.068;2024-03-08T02:21:03;99060.59;;;3.31
40199;BMP280;25906;43.536;26.068;2024-03-08T02:23:49;99073.72;;;3.35
40199;BMP280;25906;43.536;26.068;2024-03-08T02:26:37;99067.00;;;3.37
40199;BMP280;25906;43.536;26.068;2024-03-08T02:29:23;99068.16;;;3.40
40199;BMP280;25906;43.536;26.068;2024-03-08T02:32:09;99061.47;;;3.42
40199;BMP280;25906;43.536;26.068;2024-03-08T02:34:57;99062.59;;;3.45
40199;BMP280;25906;43.536;26.068;2024-03-08T02:37:45;99065.56;;;3.43
40199;BMP280;25906;43.536;26.068;2024-03-08T02:40:32;99068.94;;;3.44
40199;BMP280;25906;43.536;26.068;2024-03-08T02:43:19;99061.47;;;3.42
40199;BMP280;25906;43.536;26.068;2024-03-08T02:46:05;99066.31;;;3.44
40199;BMP280;25906;43.536;26.068;2024-03-08T02:48:50;99065.63;;;3.47
40199;BMP280;25906;43.536;26.068;2024-03-08T02:51:36;99070.09;;;3.46
40199;BMP280;25906;43.536;26.068;2024-03-08T02:54:21;99069.34;;;3.46
40199;BMP280;25906;43.536;26.068;2024-03-08T02:57:07;99063.34;;;3.45
40199;BMP280;25906;43.536;26.068;2024-03-08T02:59:56;99071.59;;;3.47
40199;BMP280;25906;43.536;26.068;2024-03-08T03:02:41;99074.94;;;3.48
40199;BMP280;25906;43.536;26.068;2024-03-08T03:05:27;99078.75;;;3.54
40199;BMP280;25906;43.536;26.068;2024-03-08T03:08:13;99073.50;;;3.50
40199;BMP280;25906;43.536;26.068;2024-03-08T03:10:58;99075.31;;;3.46
40199;BMP280;25906;43.536;26.068;2024-03-08T03:13:44;99076.94;;;3.58
40199;BMP280;25906;43.536;26.068;2024-03-08T03:16:33;99072.41;;;3.55
40199;BMP280;25906;43.536;26.068;2024-03-08T03:19:18;99075.78;;;3.55
40199;BMP280;25906;43.536;26.068;2024-03-08T03:22:04;99079.91;;;3.56
40199;BMP280;25906;43.536;26.068;2024-03-08T03:24:50;99084.34;;;3.52
40199;BMP280;25906;43.536;26.068;2024-03-08T03:27:36;99070.50;;;3.52
40199;BMP280;25906;43.536;26.068;2024-03-08T03:30:26;99073.88;;;3.52
40199;BMP280;25906;43.536;26.068;2024-03-08T03:33:12;99075.06;;;3.58
40199;BMP280;25906;43.536;26.068;2024-03-08T03:36:00;99074.66;;;3.56
40199;BMP280;25906;43.536;26.068;2024-03-08T03:38:46;99070.19;;;3.57
40199;BMP280;25906;43.536;26.068;2024-03-08T03:41:31;99073.13;;;3.52
40199;BMP280;25906;43.536;26.068;2024-03-08T03:44:17;99072.44;;;3.58
40199;BMP280;25906;43.536;26.068;2024-03-08T03:47:03;99072.75;;;3.50
40199;BMP280;25906;43.536;26.068;2024-03-08T03:49:48;99077.28;;;3.56
40199;BMP280;25906;43.536;26.068;2024-03-08T03:52:34;99072.81;;;3.57
40199;BMP280;25906;43.536;26.068;2024-03-08T03:55:19;99070.47;;;3.48
40199;BMP280;25906;43.536;26.068;2024-03-08T03:58:05;99082.81;;;3.51
40199;BMP280;25906;43.536;26.068;2024-03-08T04:00:50;99082.13;;;3.54
40199;BMP280;25906;43.536;26.068;2024-03-08T04:03:36;99077.63;;;3.55
40199;BMP280;25906;43.536;26.068;2024-03-08T04:06:21;99075.44;;;3.57
40199;BMP280;25906;43.536;26.068;2024-03-08T04:09:08;99079.56;;;3.62
40199;BMP280;25906;43.536;26.068;2024-03-08T04:11:53;99072.41;;;3.55
40199;BMP280;25906;43.536;26.068;2024-03-08T04:14:42;99076.66;;;3.67
40199;BMP280;25906;43.536;26.068;2024-03-08T04:17:27;99081.56;;;3.72
40199;BMP280;25906;43.536;26.068;2024-03-08T04:20:13;99074.34;;;3.62
40199;BMP280;25906;43.536;26.068;2024-03-08T04:22:59;99078.41;;;3.55
40199;BMP280;25906;43.536;26.068;2024-03-08T04:25:45;99072.81;;;3.57
40199;BMP280;25906;43.536;26.068;2024-03-08T04:28:30;99075.06;;;3.58
40199;BMP280;25906;43.536;26.068;2024-03-08T04:31:16;99069.03;;;3.54
40199;BMP280;25906;43.536;26.068;2024-03-08T04:34:01;99059.78;;;3.64
40199;BMP280;25906;43.536;26.068;2024-03-08T04:36:48;99055.56;;;3.52
40199;BMP280;25906;43.536;26.068;2024-03-08T04:39:34;99060.34;;;3.43
40199;BMP280;25906;43.536;26.068;2024-03-08T04:42:19;99051.34;;;3.41
40199;BMP280;25906;43.536;26.068;2024-03-08T04:45:05;99055.84;;;3.44
40199;BMP280;25906;43.536;26.068;2024-03-08T04:47:50;99056.94;;;3.39
40199;BMP280;25906;43.536;26.068;2024-03-08T04:50:37;99059.22;;;3.41
40199;BMP280;25906;43.536;26.068;2024-03-08T04:53:23;99066.69;;;3.42
40199;BMP280;25906;43.536;26.068;2024-03-08T04:56:09;99068.56;;;3.42
40199;BMP280;25906;43.536;26.068;2024-03-08T04:58:54;99073.34;;;3.36
40199;BMP280;25906;43.536;26.068;2024-03-08T05:01:40;99076.38;;;3.38
40199;BMP280;25906;43.536;26.068;2024-03-08T05:04:25;99073.75;;;3.38
40199;BMP280;25906;43.536;26.068;2024-03-08T05:07:11;99070.06;;;3.43
40199;BMP280;25906;43.536;26.068;2024-03-08T05:09:56;99081.94;;;3.37
40199;BMP280;25906;43.536;26.068;2024-03-08T05:12:41;99077.72;;;3.25
40199;BMP280;25906;43.536;26.068;2024-03-08T05:15:27;99086.41;;;3.36
40199;BMP280;25906;43.536;26.068;2024-03-08T05:18:12;99090.91;;;3.36
40199;BMP280;25906;43.536;26.068;2024-03-08T05:20:59;99090.59;;;3.41
40199;BMP280;25906;43.536;26.068;2024-03-08T05:23:45;99088.16;;;3.25
40199;BMP280;25906;43.536;26.068;2024-03-08T05:26:30;99088.94;;;3.26
40199;BMP280;25906;43.536;26.068;2024-03-08T05:29:16;99103.19;;;3.32
40199;BMP280;25906;43.536;26.068;2024-03-08T05:32:01;99103.88;;;3.29
40199;BMP280;25906;43.536;26.068;2024-03-08T05:34:48;99115.50;;;3.31
40199;BMP280;25906;43.536;26.068;2024-03-08T05:37:33;99109.41;;;3.20
40199;BMP280;25906;43.536;26.068;2024-03-08T05:40:18;99113.16;;;3.19
40199;BMP280;25906;43.536;26.068;2024-03-08T05:43:04;99114.28;;;3.22
40199;BMP280;25906;43.536;26.068;2024-03-08T05:45:50;99123.25;;;3.21
40199;BMP280;25906;43.536;26.068;2024-03-08T05:48:36;99121.72;;;3.20
40199;BMP280;25906;43.536;26.068;2024-03-08T05:51:25;99126.25;;;3.19
40199;BMP280;25906;43.536;26.068;2024-03-08T05:54:13;99122.75;;;3.11
40199;BMP280;25906;43.536;26.068;2024-03-08T05:56:59;99114.78;;;3.01
40199;BMP280;25906;43.536;26.068;2024-03-08T05:59:44;99126.53;;;3.14
40199;BMP280;25906;43.536;26.068;2024-03-08T06:02:30;99128.03;;;3.15
40199;BMP280;25906;43.536;26.068;2024-03-08T06:05:15;99136.09;;;3.33
40199;BMP280;25906;43.536;26.068;2024-03-08T06:08:01;99140.47;;;3.25
40199;BMP280;25906;43.536;26.068;2024-03-08T06:10:46;99135.59;;;3.24
40199;BMP280;25906;43.536;26.068;2024-03-08T06:13:36;99132.66;;;3.29
40199;BMP280;25906;43.536;26.068;2024-03-08T06:16:21;99139.00;;;3.28
40199;BMP280;25906;43.536;26.068;2024-03-08T06:19:07;99141.94;;;3.19
40199;BMP280;25906;43.536;26.068;2024-03-08T06:21:53;99143.78;;;3.19
40199;BMP280;25906;43.536;26.068;2024-03-08T06:24:38;99148.25;;;3.18
40199;BMP280;25906;43.536;26.068;2024-03-08T06:27:23;99154.88;;;3.12
40199;BMP280;25906;43.536;26.068;2024-03-08T06:30:10;99152.66;;;3.10
40199;BMP280;25906;43.536;26.068;2024-03-08T06:32:55;99161.34;;;3.18
40199;BMP280;25906;43.536;26.068;2024-03-08T06:35:41;99159.75;;;3.13
40199;BMP280;25906;43.536;26.068;2024-03-08T06:38:26;99164.97;;;3.10
40199;BMP280;25906;43.536;26.068;2024-03-08T06:41:12;99164.31;;;3.16
40199;BMP280;25906;43.536;26.068;2024-03-08T06:44:00;99165.34;;;3.12
40199;BMP280;25906;43.536;26.068;2024-03-08T06:46:45;99166.47;;;3.11
40199;BMP280;25906;43.536;26.068;2024-03-08T06:49:32;99168.44;;;3.17
40199;BMP280;25906;43.536;26.068;2024-03-08T06:52:18;99173.31;;;3.19
40199;BMP280;25906;43.536;26.068;2024-03-08T06:55:04;99175.75;;;3.08
40199;BMP280;25906;43.536;26.068;2024-03-08T06:57:50;99175.75;;;3.08
40199;BMP280;25906;43.536;26.068;2024-03-08T07:00:36;99180.44;;;3.22
40199;BMP280;25906;43.536;26.068;2024-03-08T07:03:22;99176.53;;;3.09
40199;BMP280;25906;43.536;26.068;2024-03-08T07:06:07;99187.06;;;3.16
40199;BMP280;25906;43.536;26.068;2024-03-08T07:08:53;99184.03;;;3.10
40199;BMP280;25906;43.536;26.068;2024-03-08T07:11:38;99183.66;;;3.12
40199;BMP280;25906;43.536;26.068;2024-03-08T07:14:24;99186.97;;;3.09
40199;BMP280;25906;43.536;26.068;2024-03-08T07:17:09;99181.34;;;3.07
40199;BMP280;25906;43.536;26.068;2024-03-08T07:19:55;99190.69;;;3.08
40199;BMP280;25906;43.536;26.068;2024-03-08T07:22:40;99188.44;;;3.06
40199;BMP280;25906;43.536;26.068;2024-03-08T07:25:26;99189.00;;;3.19
40199;BMP280;25906;43.536;26.068;2024-03-08T07:28:14;99194.94;;;3.16
40199;BMP280;25906;43.536;26.068;2024-03-08T07:30:59;99193.97;;;3.31
40199;BMP280;25906;43.536;26.068;2024-03-08T07:34:02;99195.84;;;3.31
40199;BMP280;25906;43.536;26.068;2024-03-08T07:36:48;99196.34;;;3.40
40199;BMP280;25906;43.536;26.068;2024-03-08T07:39:36;99201.22;;;3.41
40199;BMP280;25906;43.536;26.068;2024-03-08T07:42:21;99200.00;;;3.35
40199;BMP280;25906;43.536;26.068;2024-03-08T07:45:08;99200.88;;;3.43
40199;BMP280;25906;43.536;26.068;2024-03-08T07:47:55;99206.16;;;3.50
40199;BMP280;25906;43.536;26.068;2024-03-08T07:50:41;99200.16;;;3.46
40199;BMP280;25906;43.536;26.068;2024-03-08T07:53:26;99199.84;;;3.51
40199;BMP280;25906;43.536;26.068;2024-03-08T07:56:12;99196.81;;;3.49
40199;BMP280;25906;43.536;26.068;2024-03-08T07:58:58;99203.19;;;3.51
40199;BMP280;25906;43.536;26.068;2024-03-08T08:01:44;99206.53;;;3.48
40199;BMP280;25906;43.536;26.068;2024-03-08T08:04:29;99206.19;;;3.53
40199;BMP280;25906;43.536;26.068;2024-03-08T08:07:15;99207.09;;;3.65
40199;BMP280;25906;43.536;26.068;2024-03-08T08:10:00;99207.31;;;3.52
40199;BMP280;25906;43.536;26.068;2024-03-08T08:12:46;99208.53;;;3.58
40199;BMP280;25906;43.536;26.068;2024-03-08T08:15:31;99209.38;;;3.66
40199;BMP280;25906;43.536;26.068;2024-03-08T08:18:19;99212.41;;;3.72
40199;BMP280;25906;43.536;26.068;2024-03-08T08:21:06;99212.75;;;3.70
40199;BMP280;25906;43.536;26.068;2024-03-08T08:23:52;99211.00;;;3.81
40199;BMP280;25906;43.536;26.068;2024-03-08T08:26:38;99211.38;;;3.80
40199;BMP280;25906;43.536;26.068;2024-03-08T08:29:23;99213.13;;;3.69
40199;BMP280;25906;43.536;26.068;2024-03-08T08:32:09;99199.03;;;3.80
40199;BMP280;25906;43.536;26.068;2024-03-08T08:34:55;99217.53;;;3.98
40199;BMP280;25906;43.536;26.068;2024-03-08T08:37:41;99223.88;;;3.97
40199;BMP280;25906;43.536;26.068;2024-03-08T08:40:26;99225.22;;;3.80
40199;BMP280;25906;43.536;26.068;2024-03-08T08:43:13;99223.28;;;3.77
40199;BMP280;25906;43.536;26.068;2024-03-08T08:45:59;99217.09;;;3.89
40199;BMP280;25906;43.536;26.068;2024-03-08T08:48:44;99230.88;;;3.86
40199;BMP280;25906;43.536;26.068;2024-03-08T08:51:33;99229.13;;;3.97
40199;BMP280;25906;43.536;26.068;2024-03-08T08:54:22;99226.44;;;3.90
40199;BMP280;25906;43.536;26.068;2024-03-08T08:57:10;99224.94;;;3.89
40199;BMP280;25906;43.536;26.068;2024-03-08T08:59:55;99227.59;;;3.96
40199;BMP280;25906;43.536;26.068;2024-03-08T09:02:41;99226.06;;;3.91
40199;BMP280;25906;43.536;26.068;2024-03-08T09:05:27;99224.44;;;3.80
40199;BMP280;25906;43.536;26.068;2024-03-08T09:08:12;99220.50;;;3.96
40199;BMP280;25906;43.536;26.068;2024-03-08T09:10:58;99229.16;;;4.00
40199;BMP280;25906;43.536;26.068;2024-03-08T09:13:44;99222.56;;;4.14
40199;BMP280;25906;43.536;26.068;2024-03-08T09:16:31;99223.41;;;4.25
40199;BMP280;25906;43.536;26.068;2024-03-08T09:19:18;99224.56;;;4.31
40199;BMP280;25906;43.536;26.068;2024-03-08T09:22:05;99230.47;;;4.21
40199;BMP280;25906;43.536;26.068;2024-03-08T09:24:50;99229.22;;;4.08
40199;BMP280;25906;43.536;26.068;2024-03-08T09:27:37;99228.91;;;4.16
40199;BMP280;25906;43.536;26.068;2024-03-08T09:30:24;99231.59;;;4.20
40199;BMP280;25906;43.536;26.068;2024-03-08T09:33:10;99230.03;;;4.15
40199;BMP280;25906;43.536;26.068;2024-03-08T09:35:57;99224.88;;;4.22
40199;BMP280;25906;43.536;26.068;2024-03-08T09:38:45;99231.50;;;4.09
40199;BMP280;25906;43.536;26.068;2024-03-08T09:41:30;99233.09;;;4.21
40199;BMP280;25906;43.536;26.068;2024-03-08T09:44:16;99225.94;;;4.18
40199;BMP280;25906;43.536;26.068;2024-03-08T09:47:02;99230.50;;;4.24
40199;BMP280;25906;43.536;26.068;2024-03-08T09:49:48;99239.59;;;4.34
40199;BMP280;25906;43.536;26.068;2024-03-08T09:52:33;99242.84;;;4.24
40199;BMP280;25906;43.536;26.068;2024-03-08T09:55:19;99234.97;;;4.24
40199;BMP280;25906;43.536;26.068;2024-03-08T09:58:08;99247.03;;;4.28
40199;BMP280;25906;43.536;26.068;2024-03-08T10:01:12;99241.50;;;4.40
40199;BMP280;25906;43.536;26.068;2024-03-08T10:03:57;99247.78;;;4.29
40199;BMP280;25906;43.536;26.068;2024-03-08T10:06:43;99236.66;;;4.43
40199;BMP280;25906;43.536;26.068;2024-03-08T10:09:28;99243.09;;;4.56
40199;BMP280;25906;43.536;26.068;2024-03-08T10:12:15;99244.25;;;4.58
40199;BMP280;25906;43.536;26.068;2024-03-08T10:15:00;99243.81;;;4.49
40199;BMP280;25906;43.536;26.068;2024-03-08T10:17:46;99240.53;;;4.63
40199;BMP280;25906;43.536;26.068;2024-03-08T10:20:32;99248.00;;;4.57
40199;BMP280;25906;43.536;26.068;2024-03-08T10:23:21;99246.09;;;4.51
40199;BMP280;25906;43.536;26.068;2024-03-08T10:26:14;99245.50;;;4.75
40199;BMP280;25906;43.536;26.068;2024-03-08T10:29:03;99237.63;;;4.75
40199;BMP280;25906;43.536;26.068;2024-03-08T10:31:49;99239.44;;;4.64
40199;BMP280;25906;43.536;26.068;2024-03-08T10:34:35;99239.59;;;4.85
40199;BMP280;25906;43.536;26.068;2024-03-08T10:37:21;99237.34;;;4.83
40199;BMP280;25906;43.536;26.068;2024-03-08T10:40:16;99245.22;;;4.87
40199;BMP280;25906;43.536;26.068;2024-03-08T10:43:03;99241.03;;;4.79
40199;BMP280;25906;43.536;26.068;2024-03-08T10:45:53;99239.91;;;4.80
40199;BMP280;25906;43.536;26.068;2024-03-08T10:48:44;99244.56;;;5.04
40199;BMP280;25906;43.536;26.068;2024-03-08T10:51:30;99238.53;;;4.97
40199;BMP280;25906;43.536;26.068;2024-03-08T10:54:16;99234.44;;;4.99
40199;BMP280;25906;43.536;26.068;2024-03-08T10:57:03;99227.69;;;4.98
40199;BMP280;25906;43.536;26.068;2024-03-08T10:59:51;99224.72;;;5.03
40199;BMP280;25906;43.536;26.068;2024-03-08T11:02:37;99229.59;;;5.08
40199;BMP280;25906;43.536;26.068;2024-03-08T11:05:38;99224.34;;;5.01
40199;BMP280;25906;43.536;26.068;2024-03-08T11:08:24;99225.53;;;5.14
40199;BMP280;25906;43.536;26.068;2024-03-08T11:11:31;99214.34;;;5.24
40199;BMP280;25906;43.536;26.068;2024-03-08T11:14:42;99217.72;;;5.25
40199;BMP280;25906;43.536;26.068;2024-03-08T11:20:15;99213.59;;;5.24
40199;BMP280;25906;43.536;26.068;2024-03-08T11:23:03;99212.03;;;5.16
40199;BMP280;25906;43.536;26.068;2024-03-08T11:25:49;99207.19;;;5.29
40199;BMP280;25906;43.536;26.068;2024-03-08T11:28:37;99216.97;;;5.32
40199;BMP280;25906;43.536;26.068;2024-03-08T11:31:24;99214.31;;;5.28
40199;BMP280;25906;43.536;26.068;2024-03-08T11:34:15;99214.69;;;5.26
40199;BMP280;25906;43.536;26.068;2024-03-08T11:37:04;99208.31;;;5.20
40199;BMP280;25906;43.536;26.068;2024-03-08T11:39:52;99214.72;;;5.30
40199;BMP280;25906;43.536;26.068;2024-03-08T11:42:37;99215.13;;;5.43
40199;BMP280;25906;43.536;26.068;2024-03-08T11:45:23;99212.41;;;5.14
40199;BMP280;25906;43.536;26.068;2024-03-08T11:48:08;99195.94;;;5.17
40199;BMP280;25906;43.536;26.068;2024-03-08T11:51:03;99205.38;;;5.33
40199;BMP280;25906;43.536;26.068;2024-03-08T11:53:50;99212.16;;;5.41
40199;BMP280;25906;43.536;26.068;2024-03-08T11:56:35;99206.88;;;5.44
40199;BMP280;25906;43.536;26.068;2024-03-08T11:59:21;99207.69;;;5.48
40199;BMP280;25906;43.536;26.068;2024-03-08T12:02:07;99208.06;;;5.54
40199;BMP280;25906;43.536;26.068;2024-03-08T12:04:57;99203.19;;;5.59
40199;BMP280;25906;43.536;26.068;2024-03-08T12:07:56;99205.44;;;5.57
40199;BMP280;25906;43.536;26.068;2024-03-08T12:10:41;99206.97;;;5.65
40199;BMP280;25906;43.536;26.068;2024-03-08T12:13:29;99199.44;;;5.60
40199;BMP280;25906;43.536;26.068;2024-03-08T12:16:17;99204.75;;;5.78
40199;BMP280;25906;43.536;26.068;2024-03-08T12:19:03;99205.47;;;5.64
40199;BMP280;25906;43.536;26.068;2024-03-08T12:21:49;99202.47;;;5.70
40199;BMP280;25906;43.536;26.068;2024-03-08T12:24:35;99202.09;;;5.64
40199;BMP280;25906;43.536;26.068;2024-03-08T12:27:22;99197.22;;;5.55
40199;BMP280;25906;43.536;26.068;2024-03-08T12:30:27;99193.47;;;5.56
40199;BMP280;25906;43.536;26.068;2024-03-08T12:33:18;99201.69;;;5.55
40199;BMP280;25906;43.536;26.068;2024-03-08T12:36:04;99201.66;;;5.58
40199;BMP280;25906;43.536;26.068;2024-03-08T12:38:53;99191.16;;;5.58
40199;BMP280;25906;43.536;26.068;2024-03-08T12:41:39;99190.44;;;5.61
40199;BMP280;25906;43.536;26.068;2024-03-08T12:44:26;99188.56;;;5.62
40199;BMP280;25906;43.536;26.068;2024-03-08T12:47:13;99191.56;;;5.53
40199;BMP280;25906;43.536;26.068;2024-03-08T12:49:59;99184.44;;;5.57
40199;BMP280;25906;43.536;26.068;2024-03-08T12:52:44;99187.06;;;5.61
40199;BMP280;25906;43.536;26.068;2024-03-08T12:55:30;99181.47;;;5.66
40199;BMP280;25906;43.536;26.068;2024-03-08T12:58:15;99186.69;;;5.62
40199;BMP280;25906;43.536;26.068;2024-03-08T13:01:02;99182.97;;;5.67
40199;BMP280;25906;43.536;26.068;2024-03-08T13:03:53;99181.09;;;5.64
40199;BMP280;25906;43.536;26.068;2024-03-08T13:06:39;99182.59;;;5.68
40199;BMP280;25906;43.536;26.068;2024-03-08T13:09:26;99188.53;;;5.58
40199;BMP280;25906;43.536;26.068;2024-03-08T13:12:12;99191.16;;;5.51
40199;BMP280;25906;43.536;26.068;2024-03-08T13:14:58;99191.22;;;5.65
40199;BMP280;25906;43.536;26.068;2024-03-08T13:17:43;99194.19;;;5.53
40199;BMP280;25906;43.536;26.068;2024-03-08T13:20:31;99192.69;;;5.49
40199;BMP280;25906;43.536;26.068;2024-03-08T13:23:17;99182.97;;;5.56
40199;BMP280;25906;43.536;26.068;2024-03-08T13:26:02;99188.19;;;5.49
40199;BMP280;25906;43.536;26.068;2024-03-08T13:28:50;99183.72;;;5.64
40199;BMP280;25906;43.536;26.068;2024-03-08T13:31:38;99187.88;;;5.79
40199;BMP280;25906;43.536;26.068;2024-03-08T13:34:25;99192.38;;;5.79
40199;BMP280;25906;43.536;26.068;2024-03-08T13:37:14;99193.09;;;5.65
40199;BMP280;25906;43.536;26.068;2024-03-08T13:40:01;99190.41;;;5.47
40199;BMP280;25906;43.536;26.068;2024-03-08T13:42:47;99191.97;;;5.70
40199;BMP280;25906;43.536;26.068;2024-03-08T13:45:35;99188.88;;;5.43
40199;BMP280;25906;43.536;26.068;2024-03-08T13:48:23;99200.63;;;5.74
40199;BMP280;25906;43.536;26.068;2024-03-08T13:51:09;99194.19;;;5.57
40199;BMP280;25906;43.536;26.068;2024-03-08T13:54:00;99193.44;;;5.53
40199;BMP280;25906;43.536;26.068;2024-03-08T13:56:46;99196.81;;;5.57
40199;BMP280;25906;43.536;26.068;2024-03-08T13:59:31;99191.94;;;5.59
40199;BMP280;25906;43.536;26.068;2024-03-08T14:02:18;99191.94;;;5.52
40199;BMP280;25906;43.536;26.068;2024-03-08T14:05:04;99196.44;;;5.55
40199;BMP280;25906;43.536;26.068;2024-03-08T14:07:50;99195.66;;;5.51
40199;BMP280;25906;43.536;26.068;2024-03-08T14:10:35;99186.66;;;5.45
40199;BMP280;25906;43.536;26.068;2024-03-08T14:13:22;99187.03;;;5.40
40199;BMP280;25906;43.536;26.068;2024-03-08T14:16:09;99191.16;;;5.41
40199;BMP280;25906;43.536;26.068;2024-03-08T14:18:54;99184.00;;;5.38
40199;BMP280;25906;43.536;26.068;2024-03-08T14:21:40;99190.78;;;5.39
40199;BMP280;25906;43.536;26.068;2024-03-08T14:24:27;99183.63;;;5.36
40199;BMP280;25906;43.536;26.068;2024-03-08T14:27:12;99176.47;;;5.29
40199;BMP280;25906;43.536;26.068;2024-03-08T14:30:00;99182.47;;;5.22
40199;BMP280;25906;43.536;26.068;2024-03-08T14:32:45;99183.59;;;5.29
40199;BMP280;25906;43.536;26.068;2024-03-08T14:35:32;99183.59;;;5.29
40199;BMP280;25906;43.536;26.068;2024-03-08T14:38:17;99183.56;;;5.21
40199;BMP280;25906;43.536;26.068;2024-03-08T14:41:03;99187.03;;;5.40
40199;BMP280;25906;43.536;26.068;2024-03-08T14:43:48;99184.34;;;5.22
40199;BMP280;25906;43.536;26.068;2024-03-08T14:46:34;99189.66;;;5.40
40199;BMP280;25906;43.536;26.068;2024-03-08T14:49:20;99182.13;;;5.31
40199;BMP280;25906;43.536;26.068;2024-03-08T14:52:06;99187.38;;;5.35
40199;BMP280;25906;43.536;26.068;2024-03-08T14:55:11;99185.50;;;5.32
40199;BMP280;25906;43.536;26.068;2024-03-08T14:58:00;99182.88;;;5.32
40199;BMP280;25906;43.536;26.068;2024-03-08T15:00:45;99191.81;;;5.27
40199;BMP280;25906;43.536;26.068;2024-03-08T15:03:31;99187.28;;;5.10
40199;BMP280;25906;43.536;26.068;2024-03-08T15:06:17;99190.34;;;5.26
40199;BMP280;25906;43.536;26.068;2024-03-08T15:09:05;99191.00;;;5.02
40199;BMP280;25906;43.536;26.068;2024-03-08T15:12:11;99185.75;;;5.02
40199;BMP280;25906;43.536;26.068;2024-03-08T15:14:56;99187.28;;;5.13
40199;BMP280;25906;43.536;26.068;2024-03-08T15:17:42;99194.47;;;5.23
40199;BMP280;25906;43.536;26.068;2024-03-08T15:20:27;99194.41;;;5.13
40199;BMP280;25906;43.536;26.068;2024-03-08T15:23:14;99190.97;;;4.98
40199;BMP280;25906;43.536;26.068;2024-03-08T15:26:02;99192.97;;;5.26
40199;BMP280;25906;43.536;26.068;2024-03-08T15:28:48;99202.69;;;5.22
40199;BMP280;25906;43.536;26.068;2024-03-08T15:31:36;99200.00;;;5.11
40199;BMP280;25906;43.536;26.068;2024-03-08T15:34:23;99203.78;;;5.10
40199;BMP280;25906;43.536;26.068;2024-03-08T15:37:10;99197.00;;;5.02
40199;BMP280;25906;43.536;26.068;2024-03-08T15:40:00;99205.97;;;5.01
40199;BMP280;25906;43.536;26.068;2024-03-08T15:45:36;99216.50;;;5.08
40199;BMP280;25906;43.536;26.068;2024-03-08T15:48:22;99208.31;;;5.17
40199;BMP280;25906;43.536;26.068;2024-03-08T15:51:08;99207.41;;;4.95
40199;BMP280;25906;43.536;26.068;2024-03-08T15:53:56;99208.16;;;4.92
40199;BMP280;25906;43.536;26.068;2024-03-08T15:56:41;99217.97;;;5.02
40199;BMP280;25906;43.536;26.068;2024-03-08T15:59:27;99206.63;;;4.88
40199;BMP280;25906;43.536;26.068;2024-03-08T16:02:14;99213.81;;;4.98
40199;BMP280;25906;43.536;26.068;2024-03-08T16:04:59;99212.56;;;4.77
40199;BMP280;25906;43.536;26.068;2024-03-08T16:07:44;99214.56;;;4.98